Online since October of 2007


Bigbaywx more information Bigbaywx


mount mesnard more information Mount Mesnard


visit our other weather sites:

Template documentation
and downloads

And another site


CBI


there are no active watches, warnings or advisories

nearby metar reports

   
KSAW - Sawyer, Michigan
updated: May 12 2021 9:45 pm
clear  
clear  
   wind: ese 4.6 mph
wind: ese 4.6 mph
temperature: 53.6°F
dew point: 19.4°F
humidity: 26%
barometer: 30.36 inHg
clouds: clear
visibility: 10 mi
cloud details: clear
KSAW 130145Z 11004KT 10SM CLR 12/M07 A3036
KESC - Escanaba, Michigan
updated: May 12 2021 9:56 pm
clear  
clear  
   wind: calm
wind: calm
temperature: 44.6°F
dew point: 35.6°F
humidity: 71%
barometer: 30.38 inHg
clouds: clear
visibility: 10 mi
cloud details: clear
KESC 130156Z AUTO 00000KT 10SM CLR 07/02 A3038 RMK AO2 SLP296 T00720017 $
KIMT - Iron Mountain, MI
updated: May 12 2021 9:54 pm
clear  
clear  
   wind: sse 5.8 mph
wind: sse 5.8 mph
temperature: 53.6°F
dew point: 26.6°F
humidity: 35%
barometer: 30.34 inHg
clouds: clear
visibility: 10 mi
cloud details: clear
KIMT 130154Z AUTO 15005KT 10SM CLR 12/M03 A3034 RMK AO2 SLP279 T01171028
KGRB - Green Bay, WI
updated: May 12 2021 9:53 pm
clear  
clear  
   wind: sse 6.9 mph
wind: sse 6.9 mph
temperature: 50°F
wind chill: 46.4°F
dew point: 28.4°F
humidity: 43%
barometer: 30.38 inHg
clouds: clear
visibility: 10 mi
cloud details: clear
KGRB 130153Z 15006KT 10SM CLR 10/M02 A3038 RMK AO2 SLP292 T01001017
KDET - Detroit, MI
updated: May 12 2021 9:53 pm
clear  
clear  
   wind: calm
wind: calm
temperature: 55.4°F
dew point: 30.2°F
humidity: 38%
barometer: 30.37 inHg
clouds: clear
visibility: 10 mi
cloud details: clear
KDET 130153Z 00000KT 10SM CLR 13/M01 A3037 RMK AO2 SLP287 T01281006 $
 

script developed by  Saratoga-weather.org adapted for the template by  Weerstation Leuven

you find our weather info also at:

Weather Underground

midwestern weather network

WeatherlinkIP

Citizen Weather Observer Program (CWOP)

equipment we use:

weather-station
Davis VP2

weather-program
Davis Weatherlink.Com

Davis VP2

Davis Weatherlink.Com